createdAt,value
2022-10-15T00:03:13.849Z,66.87
2022-10-15T00:08:16.745Z,59.43
2022-10-15T00:13:19.669Z,53.63
2022-10-15T00:18:22.644Z,55.38
2022-10-15T00:23:25.624Z,57.14
2022-10-15T00:28:31.939Z,58.75
2022-10-15T00:33:38.211Z,60.12
2022-10-15T00:38:42.181Z,67.45
2022-10-15T00:43:47.343Z,61.08
2022-10-15T00:48:54.813Z,54.10
2022-10-15T00:53:57.757Z,55.63
2022-10-15T00:59:01.243Z,57.29
2022-10-15T01:04:05.933Z,59.20
2022-10-15T01:09:08.968Z,60.68
2022-10-15T01:14:42.356Z,68.23
2022-10-15T01:20:04.887Z,61.15
2022-10-15T01:25:35.588Z,54.08
2022-10-15T01:30:41.887Z,55.99
2022-10-15T01:35:52.978Z,57.71
2022-10-15T01:41:20.432Z,58.99
2022-10-15T01:46:35.382Z,59.97
2022-10-15T01:51:44.041Z,67.67
2022-10-15T01:56:50.789Z,60.15
2022-10-15T02:01:58.101Z,53.98
2022-10-15T02:07:18.934Z,55.60
2022-10-15T02:12:38.706Z,57.35
2022-10-15T02:17:44.938Z,58.50
2022-10-15T02:22:50.427Z,59.77
2022-10-15T02:27:56.982Z,59.44
2022-10-15T02:33:00.258Z,68.66
2022-10-15T02:38:07.237Z,61.48
2022-10-15T02:43:13.090Z,54.10
2022-10-15T02:48:17.059Z,55.38
2022-10-15T02:53:21.887Z,57.63
2022-10-15T02:58:26.024Z,59.43
2022-10-15T03:03:29.447Z,66.74
2022-10-15T03:08:33.415Z,59.71
2022-10-15T03:13:39.212Z,53.79
2022-10-15T03:18:42.642Z,55.28
2022-10-15T03:23:46.107Z,56.81
2022-10-15T03:28:53.438Z,58.14
2022-10-15T03:34:09.628Z,59.26
2022-10-15T03:39:13.946Z,67.00
2022-10-15T03:44:17.150Z,60.27
2022-10-15T03:49:21.586Z,53.71
2022-10-15T03:54:29.959Z,55.50
2022-10-15T03:59:33.455Z,57.07
2022-10-15T04:04:38.129Z,58.88
2022-10-15T04:09:41.984Z,59.67
2022-10-15T04:15:09.332Z,67.22
2022-10-15T04:20:15.550Z,58.23
2022-10-15T04:25:19.846Z,54.01
2022-10-15T04:30:22.735Z,56.72
2022-10-15T04:35:30.791Z,57.71
2022-10-15T04:41:01.969Z,58.90
2022-10-15T04:46:12.135Z,60.64
2022-10-15T04:51:21.849Z,68.20
2022-10-15T04:56:57.371Z,59.84
2022-10-15T05:02:00.972Z,53.52
2022-10-15T05:07:04.382Z,55.59
2022-10-15T05:12:08.545Z,57.11
2022-10-15T05:17:11.640Z,58.75
2022-10-15T05:22:16.762Z,60.12
2022-10-15T05:27:25.142Z,67.56
2022-10-15T05:32:28.122Z,60.56
2022-10-15T05:37:31.089Z,53.85
2022-10-15T05:42:35.536Z,55.88
2022-10-15T05:47:38.579Z,57.98
2022-10-15T05:52:50.204Z,59.81
2022-10-15T05:58:03.442Z,66.69
2022-10-15T06:03:06.383Z,59.25
2022-10-15T06:08:09.389Z,53.99
2022-10-15T06:13:12.935Z,55.87
2022-10-15T06:18:16.590Z,57.48
2022-10-15T06:23:22.029Z,59.05
2022-10-15T06:28:24.915Z,59.71
2022-10-15T06:33:28.953Z,66.01
2022-10-15T06:38:32.843Z,58.66
2022-10-15T06:43:36.203Z,53.43
2022-10-15T06:48:39.426Z,55.56
2022-10-15T06:53:43.901Z,57.11
2022-10-15T06:58:46.840Z,58.33
2022-10-15T07:03:52.877Z,59.13
2022-10-15T07:08:55.853Z,60.49
2022-10-15T07:13:58.904Z,66.53
2022-10-15T07:19:01.903Z,58.25
2022-10-15T07:24:05.133Z,53.29
2022-10-15T07:29:09.880Z,54.38
2022-10-15T07:34:12.788Z,55.45
2022-10-15T07:39:18.983Z,56.81
2022-10-15T07:44:22.009Z,57.65
2022-10-15T07:49:24.823Z,58.40
2022-10-15T07:54:27.691Z,58.96
2022-10-15T07:59:30.528Z,60.08
2022-10-15T08:04:35.122Z,59.80
2022-10-15T08:09:38.106Z,60.26
2022-10-15T08:14:41.217Z,60.91
2022-10-15T08:19:44.289Z,65.22
2022-10-15T08:24:47.784Z,55.88
2022-10-15T08:29:50.584Z,54.63
2022-10-15T08:34:53.581Z,55.34
2022-10-15T08:39:56.466Z,56.54
2022-10-15T08:45:03.870Z,57.65
2022-10-15T08:50:49.241Z,57.55
2022-10-15T08:56:04.193Z,57.80
2022-10-15T09:01:29.093Z,57.61
2022-10-15T09:06:37.224Z,57.38
2022-10-15T09:11:52.372Z,57.33
2022-10-15T09:16:55.303Z,58.28
2022-10-15T09:22:01.663Z,58.67
2022-10-15T09:27:32.939Z,58.78
2022-10-15T09:32:38.427Z,58.65
2022-10-15T09:37:41.154Z,59.34
2022-10-15T09:42:45.600Z,57.89
2022-10-15T09:47:50.829Z,55.47
2022-10-15T09:53:02.903Z,55.66
2022-10-15T09:58:12.667Z,53.95
2022-10-15T10:03:15.884Z,52.57
2022-10-15T10:08:24.555Z,51.96
2022-10-15T10:13:36.159Z,50.44
2022-10-15T10:18:39.736Z,50.70
2022-10-15T10:23:42.556Z,49.50
2022-10-15T10:29:04.410Z,48.67
2022-10-15T10:34:17.401Z,47.95
2022-10-15T10:39:26.327Z,49.80
2022-10-15T10:44:32.341Z,48.68
2022-10-15T10:49:55.402Z,50.24
2022-10-15T10:55:20.972Z,50.37
2022-10-15T11:00:42.084Z,51.68
2022-10-15T11:05:45.556Z,51.80
2022-10-15T11:11:04.719Z,52.43
2022-10-15T11:16:29.418Z,51.22
2022-10-15T11:21:46.118Z,52.22
2022-10-15T11:27:30.993Z,50.49
2022-10-15T11:33:05.493Z,49.49
2022-10-15T11:38:44.052Z,49.28
2022-10-15T11:44:22.272Z,49.66
2022-10-15T11:49:49.974Z,50.02
2022-10-15T11:55:14.326Z,51.04
2022-10-15T12:00:32.055Z,49.85
2022-10-15T12:05:42.148Z,49.12
2022-10-15T12:10:53.854Z,48.03
2022-10-15T12:16:06.519Z,49.10
2022-10-15T12:21:39.239Z,47.93
2022-10-15T12:26:42.383Z,47.40
2022-10-15T12:31:52.926Z,47.94
2022-10-15T12:37:06.492Z,47.01
2022-10-15T12:42:41.551Z,46.76
2022-10-15T12:47:54.393Z,46.68
2022-10-15T12:52:59.092Z,46.80
2022-10-15T12:58:22.291Z,47.86
2022-10-15T13:03:35.517Z,47.34
2022-10-15T13:08:44.387Z,47.72
2022-10-15T13:13:50.325Z,47.53
2022-10-15T13:18:56.838Z,47.56
2022-10-15T13:23:59.643Z,47.78
2022-10-15T13:29:02.686Z,47.70
2022-10-15T13:34:24.075Z,48.88
2022-10-15T13:39:40.242Z,47.11
2022-10-15T13:44:58.236Z,47.51
2022-10-15T13:50:27.182Z,47.33
2022-10-15T13:55:36.084Z,47.43
2022-10-15T14:00:40.602Z,46.46
2022-10-15T14:05:46.072Z,45.87
2022-10-15T14:10:50.188Z,46.51
2022-10-15T14:16:11.945Z,45.66
2022-10-15T14:21:18.446Z,44.34
2022-10-15T14:26:24.703Z,44.44
2022-10-15T14:31:40.267Z,44.32
2022-10-15T14:36:43.472Z,44.59
2022-10-15T14:42:31.535Z,44.61
2022-10-15T14:47:34.545Z,44.44
2022-10-15T14:52:45.848Z,44.96
2022-10-15T14:57:49.968Z,44.88
2022-10-15T15:02:56.836Z,44.65
2022-10-15T15:08:04.318Z,44.50
2022-10-15T15:13:22.675Z,44.60
2022-10-15T15:18:25.524Z,44.66
2022-10-15T15:23:29.712Z,45.06
2022-10-15T15:28:34.187Z,45.12
2022-10-15T15:33:37.137Z,44.74
2022-10-15T15:38:40.554Z,44.89
2022-10-15T15:43:43.733Z,45.14
2022-10-15T15:48:47.124Z,45.39
2022-10-15T15:53:50.396Z,45.57
2022-10-15T15:58:53.402Z,45.65
2022-10-15T16:03:56.286Z,45.75
2022-10-15T16:08:59.642Z,45.63
2022-10-15T16:14:05.843Z,45.59
2022-10-15T16:19:11.725Z,45.62
2022-10-15T16:24:14.611Z,45.89
2022-10-15T16:29:17.601Z,45.94
2022-10-15T16:37:02.595Z,45.92
2022-10-15T16:42:08.527Z,45.64
2022-10-15T16:47:11.441Z,45.86
2022-10-15T16:52:15.187Z,46.03
2022-10-15T16:57:18.017Z,46.07
2022-10-15T17:02:20.943Z,46.29
2022-10-15T17:07:24.567Z,46.03
2022-10-15T17:12:28.142Z,46.16
2022-10-15T17:17:31.415Z,46.37
2022-10-15T17:22:44.575Z,47.14
2022-10-15T17:27:47.428Z,46.76
2022-10-15T17:32:50.300Z,47.08
2022-10-15T17:37:53.358Z,46.59
2022-10-15T17:42:56.542Z,46.34
2022-10-15T17:47:59.404Z,46.27
2022-10-15T17:53:04.177Z,46.26
2022-10-15T17:58:08.040Z,46.30
2022-10-15T18:03:11.782Z,46.32
2022-10-15T18:08:15.683Z,46.50
2022-10-15T18:13:18.857Z,46.49
2022-10-15T18:18:21.788Z,46.38
2022-10-15T18:23:25.245Z,46.48
2022-10-15T18:28:28.225Z,46.68
2022-10-15T18:33:32.136Z,46.71
2022-10-15T18:38:35.685Z,46.61
2022-10-15T18:43:38.543Z,46.78
2022-10-15T18:48:41.427Z,46.79
2022-10-15T18:53:44.297Z,46.94
2022-10-15T18:58:47.339Z,47.18
2022-10-15T19:03:52.567Z,47.35
2022-10-15T19:09:03.845Z,47.64
2022-10-15T19:14:09.208Z,47.79
2022-10-15T19:19:16.309Z,48.06
2022-10-15T19:24:21.317Z,48.45
2022-10-15T19:29:24.178Z,49.25
2022-10-15T19:34:28.137Z,49.67
2022-10-15T19:39:32.886Z,50.06
2022-10-15T19:44:35.797Z,50.62
2022-10-15T19:49:39.053Z,51.39
2022-10-15T19:54:42.165Z,52.17
2022-10-15T19:59:45.165Z,52.65
2022-10-15T20:04:48.034Z,53.24
2022-10-15T20:09:51.554Z,54.02
2022-10-15T20:14:54.425Z,54.47
2022-10-15T20:19:57.304Z,54.90
2022-10-15T20:25:00.327Z,55.50
2022-10-15T20:30:04.634Z,55.89
2022-10-15T20:35:08.101Z,55.97
2022-10-15T20:40:11.246Z,56.23
2022-10-15T20:45:14.677Z,56.50
2022-10-15T20:50:22.835Z,56.80
2022-10-15T20:55:25.814Z,57.06
2022-10-15T21:00:29.786Z,57.56
2022-10-15T21:05:33.678Z,57.79
2022-10-15T21:10:36.720Z,58.54
2022-10-15T21:15:39.564Z,58.35
2022-10-15T21:20:42.468Z,58.79
2022-10-15T21:25:45.532Z,59.05
2022-10-15T21:30:48.375Z,59.23
2022-10-15T21:35:51.222Z,59.52
2022-10-15T21:40:54.102Z,59.52
2022-10-15T21:46:11.083Z,60.19
2022-10-15T21:51:26.967Z,60.11
2022-10-15T21:56:29.774Z,60.24
2022-10-15T22:01:35.419Z,59.99
2022-10-15T22:06:42.673Z,60.54
2022-10-15T22:11:45.522Z,60.84
2022-10-15T22:16:48.465Z,61.05
2022-10-15T22:21:51.453Z,61.10
2022-10-15T22:26:57.293Z,61.35
2022-10-15T22:32:00.160Z,61.68
2022-10-15T22:37:03.158Z,61.71
2022-10-15T22:42:06.553Z,61.54
2022-10-15T22:47:10.033Z,61.67
2022-10-15T22:52:12.969Z,61.90
2022-10-15T22:57:15.761Z,62.21
2022-10-15T23:02:21.697Z,68.74
2022-10-15T23:07:24.766Z,61.59
2022-10-15T23:12:28.043Z,52.67
2022-10-15T23:17:32.409Z,53.17
2022-10-15T23:22:35.274Z,53.86
2022-10-15T23:27:38.242Z,55.10
2022-10-15T23:32:42.226Z,56.25
2022-10-15T23:37:45.060Z,57.19
2022-10-15T23:42:48.684Z,57.42
2022-10-15T23:47:53.270Z,58.06
2022-10-15T23:52:57.596Z,58.92
2022-10-15T23:58:01.045Z,59.79
